메인 페이지
METAR-TAF:

METAR-TAF

공항 :

코토카 국제공항

아크라, 가나

위도: 05-36N, 경도: 000-10W, 고도: 68m

현재 날씨관측

예보는 52분 전, 23:00시(UTC)에 발표되었습니다.
남서9kt
온도 27°C
습도 84%
기압 1014 hPa
시정 10km 이상
고도 1200ft 상공 구름 조금

METAR: DGAA 012300Z 23009KT 9999 FEW012 27/24 Q1014 NOSIG

시각: 23:52 (23:52 UTC)

예보

예보는 52분 전, 23:00시(UTC)에 발표되었습니다.
예보 대상 시간: 02일 00시부터 03일 06시까지 (UTC)
8kt
시정 10km 이상
1500m 미만 상공 구름 및 적란운 없음
일시적
02일 00시부터 02일 06시까지 (UTC)
고도 1500ft 상공 구름 많음
전환 중
02일 11시부터 02일 13시까지 (UTC)
남남서15kt
고도 2800ft 상공 구름 보통
확률 30% :
일시적
02일 14시부터 02일 18시까지 (UTC)
고도 3000ft 상공 구름 보통, 적란운.
뇌우

TAF: DGAA 012300Z 0200/0306 28008KT CAVOK TEMPO 0200/0206 BKN015 BECMG 0211/0213 20015KT SCT028 PROB30 TEMPO 0214/0218 TS SCT030CB

4,000개 이상의 공항 관측 자료 및 예보 (METAR 및 TAF 보고).

지도상에서 검색 가능한 기상관측소가 노란 점과 빨간 점으로 표시되어 있습니다.

기상관측소 명을 보려면 표시 위로 마우스를 이동하세요.

날씨 관측과 예보를 보려면 클릭하세요.

지도 변경 : 확대하려면 엑스 표시가 있는 녹색 버튼, 축소하려면 빼기 표시가 있는 녹색 버튼, 다음 페이지의 지도를 보려면 녹색 화살표를 클릭하세요.


METAR-TAF: